Strona główna
METAR-TAF:

METAR-TAF

Lotnisko :

Port lotniczy Padang

Padang, Indonezja

Szerokość geograficzna: 00-47-12S, Długość geograficzna: 100-16-50E, wysokość: 5 m

Aktualna obserwacja pogody

Raport powstał 33 minut temu, godzina 14:00 UTC
Wiatr 6 kt od południowy wschód
Temperatura 24°C
Wilgotność 100%
Ciśnienie 1012 hPa
Widzialność 10 km lub więcej
Przerywane chmury na wysokości 1900 ft
słaby deszcz

METAR: WIEE 211400Z 13006KT 9999 -RA BKN019 24/24 Q1012 NOSIG

czas: 21:33 (14:33 UTC)

Prognoza

Raport powstał 3 godziny i 33 minut temu, godzina 11:00 UTC
Prognoza ważna od 21 godzina 12 UTC do 22 godzina 12 UTC
Wiatr 5 kt od wschodnio-południowy wschód
Widzialność: 3000 m
Przerywane chmury na wysokości 1800 ft
deszcz
Stopniowe zmiany
od 21 godzina 14 UTC do 21 godzina 16 UTC
Wiatr 2 kt od wschód
Widzialność 10 km lub więcej
Rozproszone chmury na wysokości 2000 ft

TAF: WIEE 211100Z 2112/2212 12005KT 3000 RA BKN018 BECMG 2114/2116 08002KT 9999 SCT020

Obserwacja i prognoza pogody dla ponad 4000 lotnisk (raport METAR i TAF).

Dostępne stacje oznaczono żółtymi i czerwonymi punktami na mapie.

Najedź kursorem aby zobaczyć nazwę stacji.

Kliknij aby zobaczyć obserwacje i prognozy pogody.

Aby zmienić mapę: kliknij na zielony przycisk z czarnym krzyżykiem, aby powiększyć; na zielony przycisk z myślnikiem, aby pomniejszyć; na zielone strzałki, aby przejść do map sąsiednich.


METAR-TAF: